Time;durP1;ratioP1;P1;durP2;ratioP2;P2;SDS_P1;SDS_P2;PMS_P1;PMS_P2;Temp;Humidity;BMP_temperature;BMP_pressure;BME280_temperature;BME280_humidity;BME280_pressure;Samples;Min_cycle;Max_cycle;Signal;HPM_P1;HPM_P2
2023/01/21 00:01:15;;;;;;;1.00;1.00;;;;;;;-1.11;78.56;100337.56;5114427;27;20047;-81
2023/01/21 00:03:47;;;;;;;1.00;1.00;;;;;;;-1.12;78.22;100351.75;5132488;27;20092;-81
2023/01/21 00:06:14;;;;;;;0.90;0.90;;;;;;;-1.15;77.90;100352.03;5132120;27;20046;-81
2023/01/21 00:08:43;;;;;;;0.90;0.90;;;;;;;-1.16;77.61;100355.66;5132392;27;20043;-81
2023/01/21 00:11:15;;;;;;;0.95;0.95;;;;;;;-1.18;77.31;100354.97;5132035;27;20517;-81
2023/01/21 00:13:43;;;;;;;0.70;0.70;;;;;;;-1.22;77.16;100367.63;5129332;27;20053;-82
2023/01/21 00:16:11;;;;;;;0.90;0.90;;;;;;;-1.24;76.95;100359.00;5111436;28;20490;-81
2023/01/21 00:18:41;;;;;;;0.90;0.90;;;;;;;-1.26;76.49;100355.63;5111696;28;20112;-81
2023/01/21 00:21:08;;;;;;;0.80;0.80;;;;;;;-1.25;76.21;100357.31;5111308;28;20051;-81
2023/01/21 00:23:36;;;;;;;1.00;1.00;;;;;;;-1.25;76.27;100361.78;5093177;28;20095;-80
2023/01/21 00:26:07;;;;;;;0.88;0.88;;;;;;;-1.28;76.09;100354.09;5111250;28;20075;-81
2023/01/21 00:28:35;;;;;;;1.00;1.00;;;;;;;-1.33;76.06;100349.19;5111445;28;20418;-81
2023/01/21 00:31:05;;;;;;;0.95;0.95;;;;;;;-1.36;75.93;100360.91;5111072;28;20414;-83
2023/01/21 00:33:33;;;;;;;0.95;0.95;;;;;;;-1.38;75.63;100357.53;5111268;28;20040;-81
2023/01/21 00:36:06;;;;;;;0.93;0.93;;;;;;;-1.40;75.41;100354.19;5111047;28;20060;-81
2023/01/21 00:38:34;;;;;;;0.90;0.90;;;;;;;-1.42;75.49;100356.16;5111334;28;20593;-81
2023/01/21 00:41:05;;;;;;;0.90;0.90;;;;;;;-1.43;75.19;100359.75;5110217;28;20673;-81
2023/01/21 00:43:33;;;;;;;0.90;0.90;;;;;;;-1.46;74.93;100359.19;5093391;28;20528;-81
2023/01/21 00:46:00;;;;;;;0.90;0.90;;;;;;;-1.47;74.53;100358.34;5110928;28;20055;-82
2023/01/21 00:48:28;;;;;;;0.90;0.90;;;;;;;-1.50;74.12;100358.63;5111214;28;20052;-80
2023/01/21 00:50:59;;;;;;;1.00;1.00;;;;;;;-1.52;74.32;100360.56;5110962;28;20043;-80
2023/01/21 00:53:27;;;;;;;0.90;0.90;;;;;;;-1.52;74.07;100373.78;5111051;28;20462;-81
2023/01/21 00:56:02;;;;;;;1.00;1.00;;;;;;;-1.53;74.44;100348.28;5110702;28;20134;-81
2023/01/21 00:58:29;;;;;;;0.88;0.88;;;;;;;-1.54;73.92;100357.22;5111381;28;20057;-81
2023/01/21 01:01:02;;;;;;;1.00;1.00;;;;;;;-1.56;73.72;100369.75;5131170;27;20062;-81
2023/01/21 01:03:29;;;;;;;0.90;0.90;;;;;;;-1.57;73.62;100365.41;5128862;27;20169;-81
2023/01/21 01:06:09;;;;;;;1.00;1.00;;;;;;;-1.57;72.97;100368.91;5110556;28;20043;-81
2023/01/21 01:08:38;;;;;;;0.90;0.90;;;;;;;-1.57;72.97;100378.66;5092798;28;20055;-82
2023/01/21 01:11:05;;;;;;;0.82;0.82;;;;;;;-1.61;72.45;100372.78;5110973;28;20414;-81
2023/01/21 01:13:34;;;;;;;0.80;0.80;;;;;;;-1.62;72.59;100380.84;5110446;28;20058;-81
2023/01/21 01:16:02;;;;;;;1.00;1.00;;;;;;;-1.65;72.72;100381.97;5092493;28;20883;-82
2023/01/21 01:18:32;;;;;;;0.90;0.90;;;;;;;-1.68;72.12;100381.41;5110941;28;20057;-81
2023/01/21 01:20:59;;;;;;;0.90;0.90;;;;;;;-1.71;71.93;100392.25;5110427;28;20510;-82
2023/01/21 01:23:26;;;;;;;1.10;1.10;;;;;;;-1.72;71.76;100387.91;5110911;28;20128;-81
2023/01/21 01:26:02;;;;;;;1.00;1.00;;;;;;;-1.73;71.57;100391.53;5110518;28;20100;-80
2023/01/21 01:28:29;;;;;;;0.98;0.98;;;;;;;-1.76;71.27;100384.69;5110715;28;20050;-80
2023/01/21 01:30:57;;;;;;;1.00;1.00;;;;;;;-1.80;71.24;100389.44;5092464;28;20506;-80
2023/01/21 01:33:26;;;;;;;0.90;0.90;;;;;;;-1.83;71.48;100397.59;5110207;28;20561;-80
2023/01/21 01:35:52;;;;;;;0.85;0.85;;;;;;;-1.87;71.74;100393.56;5092285;28;20044;-81
2023/01/21 01:38:21;;;;;;;1.00;1.00;;;;;;;-1.89;71.58;100400.78;5092590;28;20047;-80
2023/01/21 01:40:51;;;;;;;0.90;0.90;;;;;;;-1.88;71.42;100402.44;5110431;28;20096;-81
2023/01/21 01:43:23;;;;;;;1.00;1.00;;;;;;;-1.88;71.08;100406.91;5110466;28;20071;-81
2023/01/21 01:45:51;;;;;;;1.00;1.00;;;;;;;-1.91;71.05;100402.72;5110451;28;20048;-80
2023/01/21 01:48:22;;;;;;;0.98;0.98;;;;;;;-1.92;70.77;100403.69;5110502;28;20046;-81
2023/01/21 01:50:49;;;;;;;1.00;1.00;;;;;;;-1.96;70.54;100405.75;5110490;28;20044;-81
2023/01/21 01:53:17;;;;;;;0.90;0.90;;;;;;;-1.96;70.73;100412.84;5113308;28;20577;-81
2023/01/21 01:55:48;;;;;;;1.00;1.00;;;;;;;-2.02;71.09;100413.38;5114365;28;20067;-81
2023/01/21 01:58:16;;;;;;;1.00;1.00;;;;;;;-2.06;71.38;100415.44;5096090;28;20048;-81
2023/01/21 02:00:49;;;;;;;1.00;1.00;;;;;;;-2.04;70.83;100417.97;5116676;27;20050;-81
2023/01/21 02:06:03;;;;;;;1.00;1.00;;;;;;;-2.11;70.87;100432.66;5119462;27;20417;-82
2023/01/21 02:08:31;;;;;;;0.90;0.90;;;;;;;-2.15;70.84;100439.16;5134748;27;20162;-81
2023/01/21 02:10:59;;;;;;;0.82;0.82;;;;;;;-2.15;70.62;100433.88;5134559;27;20054;-82
2023/01/21 02:13:28;;;;;;;0.90;0.90;;;;;;;-2.19;70.60;100436.78;5133929;27;20142;-80
2023/01/21 02:16:07;;;;;;;0.80;0.80;;;;;;;-2.13;70.26;100439.88;5095632;28;20047;-81
2023/01/21 02:18:56;;;;;;;0.90;0.90;;;;;;;-2.19;70.53;100442.06;5114271;28;20120;-82
2023/01/21 02:21:35;;;;;;;0.90;0.90;;;;;;;-2.21;70.55;100451.94;5114044;28;20152;-81
2023/01/21 02:24:17;;;;;;;0.88;0.88;;;;;;;-2.24;70.69;100454.00;5114748;28;20066;-80
2023/01/21 02:27:02;;;;;;;0.80;0.80;;;;;;;-2.27;70.81;100441.88;5115564;28;20058;-82
2023/01/21 02:29:44;;;;;;;0.90;0.90;;;;;;;-2.26;70.34;100445.34;5113560;28;20044;-81
2023/01/21 02:32:31;;;;;;;0.90;0.90;;;;;;;-2.25;69.77;100457.63;5113464;28;20444;-80
2023/01/21 02:34:58;;;;;;;1.02;1.02;;;;;;;-2.31;69.80;100455.47;5078876;28;20085;-81
2023/01/21 02:37:49;;;;;;;0.85;0.85;;;;;;;-2.32;69.96;100459.94;5113544;28;20592;-81
2023/01/21 02:40:32;;;;;;;1.00;1.00;;;;;;;-2.35;69.87;100468.13;5113467;28;20066;-81
2023/01/21 02:43:25;;;;;;;0.90;0.90;;;;;;;-2.36;69.81;100466.41;5095232;28;20067;-81
2023/01/21 02:46:00;;;;;;;0.85;0.85;;;;;;;-2.40;69.91;100467.66;5096821;28;20048;-81
2023/01/21 02:48:32;;;;;;;1.02;1.02;;;;;;;-2.43;69.52;100466.09;5058804;28;20055;-81
2023/01/21 02:50:59;;;;;;;0.77;0.77;;;;;;;-2.46;69.52;100470.78;5067254;28;20077;-81
2023/01/21 02:53:29;;;;;;;1.23;1.20;;;;;;;-2.49;69.61;100468.38;5075304;28;20047;-80
2023/01/21 02:56:08;;;;;;;1.10;1.10;;;;;;;-2.51;69.17;100468.50;5091764;28;20051;-81
2023/01/21 02:58:38;;;;;;;0.90;0.90;;;;;;;-2.52;69.32;100472.13;5096754;27;20048;-81
2023/01/21 03:01:30;;;;;;;0.90;0.90;;;;;;;-2.52;69.28;100479.22;5098992;27;20047;-81
2023/01/21 03:04:15;;;;;;;1.00;1.00;;;;;;;-2.57;69.04;100469.00;5131708;27;20085;-81
2023/01/21 03:07:12;;;;;;;0.90;0.90;;;;;;;-2.64;69.80;100483.69;5133716;27;20408;-81
2023/01/21 03:09:39;;;;;;;1.00;1.00;;;;;;;-2.67;69.48;100479.47;5115123;27;20043;-81
2023/01/21 03:12:30;;;;;;;0.90;0.90;;;;;;;-2.63;68.70;100488.84;5112553;27;20516;-81
2023/01/21 03:18:08;;;;;;;1.00;1.00;;;;;;;-2.72;68.34;100489.59;5097805;28;20403;-81
2023/01/21 03:20:48;;;;;;;0.98;0.98;;;;;;;-2.77;68.29;100489.13;5111909;28;20059;-83
2023/01/21 03:23:19;;;;;;;1.00;1.00;;;;;;;-2.81;68.41;100482.41;5089264;28;20043;-82
2023/01/21 03:25:48;;;;;;;1.08;1.08;;;;;;;-2.79;67.81;100495.47;5088894;28;20052;-81
2023/01/21 03:28:20;;;;;;;0.80;0.80;;;;;;;-2.85;67.90;100486.25;5067406;28;20039;-82
2023/01/21 03:30:54;;;;;;;1.05;1.05;;;;;;;-2.87;68.21;100490.81;5084643;28;20047;-81
2023/01/21 03:33:21;;;;;;;1.10;1.10;;;;;;;-2.93;68.48;100489.50;5075139;28;20054;-81
2023/01/21 03:35:51;;;;;;;0.90;0.90;;;;;;;-2.97;68.79;100503.06;5099881;28;20540;-80
2023/01/21 03:38:44;;;;;;;0.98;0.98;;;;;;;-2.97;68.44;100497.78;5082771;28;20056;-81
2023/01/21 03:41:14;;;;;;;1.00;1.00;;;;;;;-2.99;67.91;100504.97;5101853;28;20059;-81
2023/01/21 03:43:41;;;;;;;1.00;1.00;;;;;;;-3.00;67.99;100500.66;5083411;28;20052;-81
2023/01/21 03:46:24;;;;;;;0.95;0.95;;;;;;;-2.98;67.33;100506.69;5101413;28;20040;-81
2023/01/21 03:49:13;;;;;;;0.90;0.90;;;;;;;-3.01;66.93;100497.19;5101927;28;20054;-81
2023/01/21 03:51:52;;;;;;;0.90;0.90;;;;;;;-3.06;67.41;100505.47;5100835;28;20056;-80
2023/01/21 03:54:45;;;;;;;1.13;1.13;;;;;;;-3.09;67.88;100507.50;5100741;28;20101;-80
2023/01/21 03:57:13;;;;;;;1.10;1.10;;;;;;;-3.13;67.84;100514.84;5081019;28;20569;-80
2023/01/21 03:59:40;;;;;;;0.70;0.70;;;;;;;-3.12;68.01;100511.22;5100042;28;20048;-81
2023/01/21 04:02:11;;;;;;;0.95;0.95;;;;;;;-3.07;67.56;100514.34;5099029;28;20044;-80
2023/01/21 04:04:39;;;;;;;0.77;0.77;;;;;;;-3.03;67.48;100514.13;5100752;28;20048;-80
2023/01/21 04:07:08;;;;;;;0.98;0.98;;;;;;;-3.06;67.21;100521.31;5099726;28;20513;-81
2023/01/21 04:09:35;;;;;;;1.13;1.13;;;;;;;-3.07;67.32;100521.44;5101716;28;20138;-80
2023/01/21 04:12:02;;;;;;;0.90;0.90;;;;;;;-3.09;67.69;100526.00;5099876;28;20052;-80
2023/01/21 04:14:29;;;;;;;1.00;1.00;;;;;;;-3.10;67.70;100527.78;5099014;28;20101;-80
2023/01/21 04:16:56;;;;;;;1.00;1.00;;;;;;;-3.11;67.11;100534.06;5090855;28;20510;-82
2023/01/21 04:19:23;;;;;;;1.00;1.00;;;;;;;-3.12;67.29;100536.81;5090677;28;20135;-82
2023/01/21 04:21:50;;;;;;;0.82;0.82;;;;;;;-3.12;67.21;100542.09;5091293;28;20055;-81
2023/01/21 04:24:17;;;;;;;0.80;0.80;;;;;;;-3.15;66.87;100543.16;5100450;28;20134;-79
2023/01/21 04:26:44;;;;;;;1.00;1.00;;;;;;;-3.14;66.75;100550.16;5105820;28;20066;-80
2023/01/21 04:29:14;;;;;;;1.00;1.00;;;;;;;-3.17;66.84;100544.25;5111278;28;20081;-84
2023/01/21 04:31:41;;;;;;;1.15;1.15;;;;;;;-3.17;66.95;100555.63;5093403;28;20048;-82
2023/01/21 04:34:08;;;;;;;1.00;1.00;;;;;;;-3.19;66.82;100560.22;5111245;28;20066;-79
2023/01/21 04:36:35;;;;;;;0.95;0.95;;;;;;;-3.24;67.38;100557.09;5104292;28;20117;-80
2023/01/21 04:39:02;;;;;;;1.00;1.00;;;;;;;-3.30;67.63;100558.38;5099373;28;20051;-80
2023/01/21 04:41:32;;;;;;;0.90;0.90;;;;;;;-3.30;67.53;100566.31;5099667;28;20047;-82
2023/01/21 04:43:59;;;;;;;1.10;1.10;;;;;;;-3.32;67.56;100564.72;5109149;28;20100;-82
2023/01/21 04:46:26;;;;;;;0.95;0.95;;;;;;;-3.38;68.13;100566.06;5114099;28;20046;-83
2023/01/21 04:48:53;;;;;;;0.80;0.80;;;;;;;-3.43;68.24;100572.66;5094903;28;20799;-81
2023/01/21 04:51:23;;;;;;;1.02;1.02;;;;;;;-3.43;68.20;100568.19;5115900;27;20070;-81
2023/01/21 04:53:50;;;;;;;1.20;1.15;;;;;;;-3.44;68.61;100578.88;5132939;27;20126;-83
2023/01/21 04:56:17;;;;;;;1.00;1.00;;;;;;;-3.47;68.63;100582.56;5132105;27;20067;-80
2023/01/21 04:58:45;;;;;;;1.00;1.00;;;;;;;-3.51;68.32;100583.78;5106142;27;20091;-82
2023/01/21 05:01:12;;;;;;;0.98;0.98;;;;;;;-3.56;68.30;100589.41;5109927;27;20059;-80
2023/01/21 05:03:39;;;;;;;1.00;1.00;;;;;;;-3.61;68.67;100583.63;5114746;28;20107;-82
2023/01/21 05:06:06;;;;;;;1.00;1.00;;;;;;;-3.62;68.47;100600.44;5093743;28;20040;-82
2023/01/21 05:08:36;;;;;;;0.90;0.90;;;;;;;-3.63;68.47;100605.81;5111640;28;20047;-82
2023/01/21 05:11:03;;;;;;;0.93;0.93;;;;;;;-3.68;68.66;100608.78;5128588;27;20529;-86
2023/01/21 05:13:30;;;;;;;0.98;0.98;;;;;;;-3.68;68.79;100611.41;5083204;27;20052;-78
2023/01/21 05:16:03;;;;;;;0.98;0.98;;;;;;;-3.69;68.85;100609.75;5110557;28;20047;-79
2023/01/21 05:18:30;;;;;;;1.00;1.00;;;;;;;-3.73;68.80;100616.19;5110279;27;20162;-78
2023/01/21 05:20:57;;;;;;;1.10;1.10;;;;;;;-3.73;68.63;100616.19;5102153;28;20055;-80
2023/01/21 05:23:24;;;;;;;0.85;0.85;;;;;;;-3.77;68.65;100610.31;5101118;28;20498;-82
2023/01/21 05:25:50;;;;;;;1.10;1.10;;;;;;;-3.78;68.31;100607.78;5103994;28;20085;-78
2023/01/21 05:28:18;;;;;;;0.93;0.93;;;;;;;-3.76;68.40;100616.44;5099893;28;20047;-79
2023/01/21 05:30:45;;;;;;;1.10;1.10;;;;;;;-3.79;68.27;100621.94;5103368;28;20134;-82
2023/01/21 05:33:12;;;;;;;0.88;0.88;;;;;;;-3.82;68.56;100622.16;5082468;28;20059;-81
2023/01/21 05:35:40;;;;;;;0.95;0.95;;;;;;;-3.86;68.86;100628.63;5094539;28;20054;-82
2023/01/21 05:38:07;;;;;;;0.73;0.73;;;;;;;-3.88;68.72;100630.50;5073697;28;20048;-80
2023/01/21 05:40:35;;;;;;;0.95;0.95;;;;;;;-3.90;68.88;100635.06;5090667;28;20040;-82
2023/01/21 05:43:04;;;;;;;1.10;1.10;;;;;;;-3.90;68.47;100637.69;5081233;28;20043;-81
2023/01/21 05:45:32;;;;;;;1.00;1.00;;;;;;;-3.97;68.51;100642.59;5109991;28;20051;-82
2023/01/21 05:48:04;;;;;;;1.00;1.00;;;;;;;-4.02;69.09;100642.91;5067328;28;20137;-83
2023/01/21 05:50:33;;;;;;;0.98;0.98;;;;;;;-4.01;69.20;100655.13;5096351;28;20043;-82
2023/01/21 05:53:03;;;;;;;0.98;0.98;;;;;;;-3.99;69.11;100647.13;5130926;28;20047;-81
2023/01/21 05:55:30;;;;;;;0.90;0.90;;;;;;;-4.01;69.35;100649.03;5131549;28;20051;-82
2023/01/21 05:57:58;;;;;;;1.10;1.10;;;;;;;-4.03;69.25;100656.22;5113744;28;20072;-81
2023/01/21 06:00:26;;;;;;;1.10;1.10;;;;;;;-4.03;69.06;100649.13;5096577;28;20046;-80
2023/01/21 06:02:53;;;;;;;1.13;1.13;;;;;;;-4.02;68.72;100658.75;5092240;28;20047;-81
2023/01/21 06:05:21;;;;;;;0.90;0.90;;;;;;;-4.02;68.88;100658.75;5110535;28;20047;-81
2023/01/21 06:07:48;;;;;;;0.98;0.98;;;;;;;-4.01;69.02;100660.41;5111341;28;20074;-82
2023/01/21 06:10:16;;;;;;;1.00;1.00;;;;;;;-4.01;69.17;100656.94;5102733;28;20051;-81
2023/01/21 06:12:44;;;;;;;0.90;0.90;;;;;;;-4.02;69.20;100666.66;5080135;28;20489;-82
2023/01/21 06:15:13;;;;;;;1.10;1.10;;;;;;;-4.01;69.33;100672.75;5069145;28;20044;-81
2023/01/21 06:17:42;;;;;;;1.05;1.05;;;;;;;-4.00;69.29;100671.81;5069259;28;20510;-82
2023/01/21 06:20:13;;;;;;;0.95;0.95;;;;;;;-3.97;69.53;100682.16;5069264;28;20052;-81
2023/01/21 06:22:41;;;;;;;0.95;0.95;;;;;;;-4.00;69.15;100669.16;5069836;28;20045;-80
2023/01/21 06:25:11;;;;;;;0.93;0.93;;;;;;;-3.98;69.16;100678.66;5069434;28;20407;-80
2023/01/21 06:27:38;;;;;;;0.85;0.85;;;;;;;-3.98;68.84;100673.38;5069632;28;20055;-80
2023/01/21 06:30:07;;;;;;;0.90;0.90;;;;;;;-4.00;68.75;100671.81;5048172;28;20495;-82
2023/01/21 06:32:35;;;;;;;1.05;1.05;;;;;;;-4.07;68.99;100666.16;5049614;28;20040;-82
2023/01/21 06:35:06;;;;;;;1.08;1.08;;;;;;;-4.03;68.49;100662.31;5040361;28;20045;-80
2023/01/21 06:37:33;;;;;;;1.00;1.00;;;;;;;-4.03;68.16;100675.50;5049745;28;20052;-82
2023/01/21 06:40:00;;;;;;;1.00;1.00;;;;;;;-4.01;68.16;100686.78;5051586;28;20056;-82
2023/01/21 06:42:28;;;;;;;1.10;1.10;;;;;;;-4.01;67.98;100689.44;5053070;28;20095;-81
2023/01/21 06:45:01;;;;;;;0.77;0.77;;;;;;;-4.01;68.14;100689.44;5058713;28;20045;-81
2023/01/21 06:47:29;;;;;;;1.00;1.00;;;;;;;-4.03;67.96;100687.84;5052756;28;20079;-82
2023/01/21 06:49:56;;;;;;;1.00;1.00;;;;;;;-4.04;67.81;100689.66;5052942;28;20102;-83
2023/01/21 06:52:23;;;;;;;1.08;1.08;;;;;;;-4.02;68.03;100698.31;5059558;28;20056;-82
2023/01/21 06:54:50;;;;;;;1.10;1.10;;;;;;;-4.02;68.22;100693.03;5072822;28;20094;-82
2023/01/21 06:57:26;;;;;;;1.00;1.00;;;;;;;-4.00;68.15;100696.41;5072058;28;20051;-82
2023/01/21 06:59:56;;;;;;;0.90;0.90;;;;;;;-3.97;68.08;100700.63;5065035;28;20106;-81
2023/01/21 07:02:26;;;;;;;0.88;0.88;;;;;;;-3.98;68.06;100712.09;5074459;28;20076;-81
2023/01/21 07:04:59;;;;;;;0.88;0.88;;;;;;;-3.96;67.94;100710.22;5071918;28;20140;-81
2023/01/21 07:07:26;;;;;;;1.00;1.00;;;;;;;-3.94;67.89;100709.16;5072322;28;20097;-82
2023/01/21 07:09:53;;;;;;;0.90;0.90;;;;;;;-3.96;68.27;100703.13;5081311;28;20056;-81
2023/01/21 07:12:20;;;;;;;0.93;0.93;;;;;;;-3.86;68.11;100727.06;5089432;28;20067;-82
2023/01/21 07:14:48;;;;;;;1.25;1.17;;;;;;;-3.86;67.66;100715.66;5080635;28;20434;-84
2023/01/21 07:17:15;;;;;;;1.10;1.10;;;;;;;-3.77;67.71;100730.84;5070891;28;20068;-81
2023/01/21 07:19:42;;;;;;;0.82;0.82;;;;;;;-3.75;67.13;100731.56;5077359;28;20596;-80
2023/01/21 07:22:12;;;;;;;1.27;1.20;;;;;;;-3.76;67.06;100724.63;5083046;28;20059;-80
2023/01/21 07:24:41;;;;;;;1.10;1.10;;;;;;;-3.77;66.58;100721.13;5069912;28;20105;-80
2023/01/21 07:27:08;;;;;;;0.80;0.80;;;;;;;-3.85;66.54;100725.25;5071990;28;20053;-81
2023/01/21 07:29:36;;;;;;;1.10;1.10;;;;;;;-3.68;66.97;100724.91;5069691;28;20515;-82
2023/01/21 07:32:05;;;;;;;1.00;1.00;;;;;;;-3.68;66.08;100731.97;5070023;28;20056;-83
2023/01/21 07:34:33;;;;;;;0.98;0.98;;;;;;;-3.75;65.77;100740.34;5071791;28;20048;-82
2023/01/21 07:37:03;;;;;;;1.33;1.23;;;;;;;-3.79;66.27;100722.19;5064534;28;20053;-79
2023/01/21 07:39:31;;;;;;;1.10;1.10;;;;;;;-3.71;66.26;100748.88;5069179;28;20049;-82
2023/01/21 07:42:01;;;;;;;1.00;1.00;;;;;;;-3.63;66.42;100743.88;5070739;28;20040;-80
2023/01/21 07:44:28;;;;;;;1.13;1.10;;;;;;;-3.68;66.24;100719.63;5068828;28;20049;-83
2023/01/21 07:46:55;;;;;;;1.00;1.00;;;;;;;-3.55;65.63;100751.25;5050817;28;20049;-82
2023/01/21 07:49:23;;;;;;;1.00;1.00;;;;;;;-3.57;65.82;100746.09;5069523;28;20415;-81
2023/01/21 07:51:55;;;;;;;0.77;0.77;;;;;;;-3.49;65.44;100742.91;5070773;28;20040;-82
2023/01/21 07:54:22;;;;;;;1.10;1.10;;;;;;;-3.53;65.15;100742.25;5053852;28;20040;-82
2023/01/21 07:56:49;;;;;;;1.10;1.10;;;;;;;-3.50;65.32;100742.03;5070795;28;20051;-82
2023/01/21 07:59:18;;;;;;;1.00;1.00;;;;;;;-3.50;65.03;100751.75;5063066;28;20420;-80
2023/01/21 08:01:45;;;;;;;1.02;1.02;;;;;;;-3.49;65.13;100751.66;5070461;28;20052;-81
2023/01/21 08:04:13;;;;;;;0.82;0.82;;;;;;;-3.44;64.91;100761.00;5064007;28;20080;-82
2023/01/21 08:06:40;;;;;;;1.08;1.08;;;;;;;-3.46;64.57;100766.41;5064437;28;20054;-82
2023/01/21 08:09:08;;;;;;;1.08;1.08;;;;;;;-3.44;65.32;100759.25;5069007;28;20048;-80
2023/01/21 08:11:36;;;;;;;0.95;0.95;;;;;;;-3.38;65.03;100774.63;5069242;28;20071;-82
2023/01/21 08:14:04;;;;;;;0.95;0.95;;;;;;;-3.32;64.87;100768.91;5110530;28;20479;-83
2023/01/21 08:16:31;;;;;;;1.00;1.00;;;;;;;-3.20;64.88;100774.25;5108225;28;20058;-82
2023/01/21 08:18:58;;;;;;;0.95;0.95;;;;;;;-3.23;64.04;100756.81;5059709;28;20052;-80
2023/01/21 08:21:26;;;;;;;1.00;1.00;;;;;;;-3.33;63.44;100769.00;5091286;28;20055;-81
2023/01/21 08:23:53;;;;;;;1.00;1.00;;;;;;;-3.43;63.64;100747.72;5098500;28;20502;-82
2023/01/21 08:26:23;;;;;;;1.00;1.00;;;;;;;-3.23;63.91;100754.19;5114351;27;20677;-80
2023/01/21 08:28:54;;;;;;;1.30;1.20;;;;;;;-3.22;63.73;100747.09;5103581;28;20571;-80
2023/01/21 08:31:21;;;;;;;1.00;1.00;;;;;;;-3.21;63.58;100765.47;5096222;28;20134;-81
2023/01/21 08:33:48;;;;;;;1.10;1.10;;;;;;;-3.17;63.55;100748.44;5096667;28;20070;-81
2023/01/21 08:36:15;;;;;;;1.10;1.10;;;;;;;-3.10;62.94;100764.69;5112961;27;20083;-82
2023/01/21 08:38:43;;;;;;;1.10;1.10;;;;;;;-3.18;63.06;100759.97;5095424;27;20402;-81
2023/01/21 08:41:10;;;;;;;1.10;1.10;;;;;;;-3.18;63.06;100740.63;5113268;27;20413;-81
2023/01/21 08:43:39;;;;;;;1.00;1.00;;;;;;;-3.15;62.80;100759.72;5086795;28;20044;-81
2023/01/21 08:46:10;;;;;;;0.90;0.90;;;;;;;-3.13;62.60;100765.75;5106082;28;20050;-83
2023/01/21 08:48:38;;;;;;;1.00;1.00;;;;;;;-3.11;62.92;100766.47;5110292;28;20143;-82
2023/01/21 08:51:06;;;;;;;1.02;1.02;;;;;;;-3.03;62.93;100767.72;5091775;28;20058;-81
2023/01/21 08:53:33;;;;;;;1.15;1.15;;;;;;;-3.06;62.42;100761.69;5105889;28;20047;-82
2023/01/21 08:56:02;;;;;;;0.90;0.90;;;;;;;-3.14;62.26;100766.72;5090490;28;20051;-84
2023/01/21 08:58:31;;;;;;;1.00;1.00;;;;;;;-3.18;61.74;100765.25;5103969;27;20047;-81
2023/01/21 09:00:58;;;;;;;1.20;1.13;;;;;;;-3.16;62.07;100765.97;5111664;27;20157;-80
2023/01/21 09:03:28;;;;;;;0.98;0.98;;;;;;;-3.13;62.41;100763.09;5108578;28;20051;-81
2023/01/21 09:06:04;;;;;;;1.10;1.10;;;;;;;-3.06;62.56;100761.69;5102166;28;20059;-81
2023/01/21 09:08:35;;;;;;;1.30;1.20;;;;;;;-2.95;62.34;100767.97;5107189;28;20047;-82
2023/01/21 09:11:04;;;;;;;1.08;1.08;;;;;;;-2.94;62.23;100756.44;5091008;28;20048;-82
2023/01/21 09:13:34;;;;;;;0.95;0.95;;;;;;;-2.94;61.45;100762.56;5086546;28;20065;-84
2023/01/21 09:16:15;;;;;;;0.98;0.98;;;;;;;-2.97;61.08;100767.25;5109287;28;20043;-83
2023/01/21 09:18:42;;;;;;;0.98;0.98;;;;;;;-2.95;61.16;100768.81;5109401;28;20078;-85
2023/01/21 09:21:10;;;;;;;1.15;1.13;;;;;;;-2.89;61.43;100764.88;5109850;28;20637;-83
2023/01/21 09:23:39;;;;;;;1.10;1.10;;;;;;;-2.84;61.29;100758.31;5107016;28;20069;-82
2023/01/21 09:26:16;;;;;;;0.93;0.93;;;;;;;-2.81;60.57;100767.81;5070947;28;20050;-83
2023/01/21 09:28:49;;;;;;;1.10;1.10;;;;;;;-2.74;61.10;100752.31;5089702;28;20050;-82
2023/01/21 09:31:20;;;;;;;0.90;0.90;;;;;;;-2.66;61.04;100756.06;5101774;28;20058;-81
2023/01/21 09:33:49;;;;;;;0.95;0.95;;;;;;;-2.57;61.05;100758.97;5102192;28;20052;-81
2023/01/21 09:36:21;;;;;;;1.00;1.00;;;;;;;-2.52;60.84;100756.81;5088237;28;20101;-80
2023/01/21 09:38:49;;;;;;;0.88;0.88;;;;;;;-2.49;60.44;100762.69;5081851;28;20086;-80
2023/01/21 09:41:30;;;;;;;0.90;0.90;;;;;;;-2.48;59.91;100763.53;5089939;28;20146;-82
2023/01/21 09:44:32;;;;;;;1.10;1.10;;;;;;;-2.57;59.82;100770.38;5091331;28;20422;-80
2023/01/21 09:47:25;;;;;;;1.05;1.05;;;;;;;-2.70;59.65;100759.91;5106451;28;20567;-80
2023/01/21 09:49:58;;;;;;;1.00;1.00;;;;;;;-2.72;59.64;100759.16;5091145;28;20100;-81
2023/01/21 09:52:32;;;;;;;1.00;1.00;;;;;;;-2.77;59.18;100758.66;5104377;28;20047;-81
2023/01/21 09:55:03;;;;;;;0.93;0.93;;;;;;;-2.82;59.48;100763.47;5106470;28;20043;-82
2023/01/21 09:57:50;;;;;;;0.90;0.90;;;;;;;-2.72;59.69;100764.44;5086852;28;20080;-83
2023/01/21 10:00:59;;;;;;;0.90;0.90;;;;;;;-2.62;59.75;100761.97;5090164;28;20056;-80
2023/01/21 10:03:38;;;;;;;1.20;1.10;;;;;;;-2.70;59.26;100757.25;5109889;28;20460;-80
2023/01/21 10:06:25;;;;;;;1.00;1.00;;;;;;;-2.70;59.49;100767.00;5108791;28;20424;-80
2023/01/21 10:09:11;;;;;;;1.00;1.00;;;;;;;-2.68;59.80;100760.63;5091690;28;20055;-79
2023/01/21 10:11:59;;;;;;;1.10;1.10;;;;;;;-2.60;60.33;100743.34;5089624;28;20048;-79
2023/01/21 10:15:16;;;;;;;1.00;1.00;;;;;;;-2.42;59.65;100760.44;5109964;28;20119;-79
2023/01/21 10:18:08;;;;;;;1.05;1.05;;;;;;;-2.40;59.58;100753.22;5037405;28;20065;-81
2023/01/21 10:20:44;;;;;;;1.00;1.00;;;;;;;-2.36;59.41;100753.81;5048979;28;20056;-80
2023/01/21 10:23:21;;;;;;;0.80;0.80;;;;;;;-2.41;59.12;100743.59;5044300;28;20148;-78
2023/01/21 10:25:51;;;;;;;0.95;0.95;;;;;;;-2.31;59.16;100752.50;5033585;28;20052;-77
2023/01/21 10:28:24;;;;;;;0.90;0.90;;;;;;;-2.24;59.51;100748.44;5043741;28;20610;-80
2023/01/21 10:31:06;;;;;;;0.82;0.82;;;;;;;-2.47;58.48;100734.34;5048653;28;20053;-79
2023/01/21 10:33:37;;;;;;;1.00;1.00;;;;;;;-2.43;58.88;100740.22;5016071;28;20057;-80
2023/01/21 10:36:10;;;;;;;1.00;1.00;;;;;;;-2.35;59.33;100748.44;5050614;28;20092;-81
2023/01/21 10:38:48;;;;;;;1.05;1.05;;;;;;;-2.32;59.17;100742.91;5045907;28;20589;-79
2023/01/21 10:41:32;;;;;;;1.00;1.00;;;;;;;-2.30;59.10;100740.97;5042253;28;20103;-81
2023/01/21 10:44:08;;;;;;;1.10;1.10;;;;;;;-2.36;58.83;100741.44;4683236;28;10001415;-79
2023/01/21 10:46:44;;;;;;;0.90;0.90;;;;;;;-2.30;59.24;100732.22;5039763;28;20567;-78
2023/01/21 10:49:29;;;;;;;1.00;1.00;;;;;;;-2.16;59.40;100725.81;5091286;28;20052;-78
2023/01/21 10:52:15;;;;;;;1.10;1.10;;;;;;;-2.16;59.37;100715.25;5097836;28;20520;-80
2023/01/21 10:55:01;;;;;;;1.00;1.00;;;;;;;-2.19;58.74;100729.56;5101905;28;20131;-80
2023/01/21 10:57:48;;;;;;;1.00;1.00;;;;;;;-2.28;58.78;100725.84;5087810;28;20716;-81
2023/01/21 11:00:23;;;;;;;0.85;0.85;;;;;;;-2.40;58.70;100721.50;5072122;28;20141;-80
2023/01/21 11:02:54;;;;;;;1.02;1.02;;;;;;;-2.38;58.62;100735.44;5101584;28;20058;-80
2023/01/21 11:05:30;;;;;;;1.10;1.10;;;;;;;-2.40;59.08;100709.13;5088655;28;20047;-78
2023/01/21 11:07:57;;;;;;;1.10;1.10;;;;;;;-2.25;58.48;100725.59;5106910;28;20048;-79
2023/01/21 11:10:26;;;;;;;0.90;0.90;;;;;;;-2.29;58.72;100712.72;5100408;28;20066;-78
2023/01/21 11:12:55;;;;;;;1.10;1.10;;;;;;;-2.25;58.74;100733.53;5097942;28;20121;-78
2023/01/21 11:15:23;;;;;;;1.10;1.10;;;;;;;-2.20;59.05;100731.38;5065850;28;20071;-77
2023/01/21 11:18:01;;;;;;;1.00;1.00;;;;;;;-2.20;58.66;100726.06;5096576;28;20414;-78
2023/01/21 11:20:41;;;;;;;1.08;1.08;;;;;;;-2.30;58.53;100719.81;5102457;28;20063;-77
2023/01/21 11:23:30;;;;;;;1.00;1.00;;;;;;;-2.36;58.76;100715.00;5086305;28;20043;-77
2023/01/21 11:26:27;;;;;;;1.00;1.00;;;;;;;-2.34;58.49;100713.06;5096708;28;20221;-77
2023/01/21 11:29:10;;;;;;;1.10;1.10;;;;;;;-2.33;58.69;100720.06;5081216;27;20044;-79
2023/01/21 11:31:39;;;;;;;1.00;1.00;;;;;;;-2.36;59.00;100712.34;5086259;28;20130;-76
2023/01/21 11:34:12;;;;;;;0.98;0.98;;;;;;;-2.44;58.78;100709.47;5110675;28;20524;-77
2023/01/21 11:37:02;;;;;;;0.90;0.90;;;;;;;-2.40;58.92;100724.16;5075198;28;20040;-77
2023/01/21 11:39:44;;;;;;;0.90;0.90;;;;;;;-2.42;59.36;100726.06;5091970;28;20055;-77
2023/01/21 11:42:16;;;;;;;0.98;0.98;;;;;;;-2.45;59.28;100721.00;5076675;28;20056;-78
2023/01/21 11:44:54;;;;;;;0.90;0.90;;;;;;;-2.47;59.38;100723.75;5093470;28;20055;-78
2023/01/21 11:47:38;;;;;;;0.90;0.90;;;;;;;-2.52;59.59;100725.09;5110798;28;20059;-77
2023/01/21 11:50:15;;;;;;;1.02;1.02;;;;;;;-2.58;59.32;100720.25;5083417;28;20443;-76
2023/01/21 11:52:43;;;;;;;1.02;1.02;;;;;;;-2.63;59.67;100713.53;5102618;28;20162;-77